createdAt,value
2023-03-23T15:58:52.893Z,21.67
2023-03-23T16:01:22.930Z,16.05
2023-03-23T16:03:52.087Z,19.77
2023-03-23T16:06:23.928Z,18.00
2023-03-23T16:08:54.772Z,19.33
2023-03-23T16:11:23.030Z,17.40
2023-03-23T16:13:49.983Z,19.95
2023-03-23T16:16:23.323Z,18.70
2023-03-23T16:18:50.311Z,21.02
2023-03-23T16:21:17.096Z,22.50
2023-03-23T16:23:46.402Z,21.95
2023-03-23T16:26:15.174Z,19.08
2023-03-23T16:28:43.063Z,17.83
2023-03-23T16:31:10.022Z,22.05
2023-03-23T16:33:37.041Z,18.08
2023-03-23T16:36:04.592Z,21.25
2023-03-23T16:38:31.569Z,17.95
2023-03-23T16:40:58.382Z,17.75
2023-03-23T16:43:25.332Z,23.40
2023-03-23T16:45:56.171Z,19.27
2023-03-23T16:48:23.734Z,25.17
2023-03-23T16:50:51.711Z,20.60
2023-03-23T16:53:19.347Z,24.10
2023-03-23T16:55:48.483Z,20.35
2023-03-23T16:58:17.752Z,27.38
2023-03-23T17:00:49.201Z,24.73
2023-03-23T17:03:17.671Z,27.00
2023-03-23T17:05:45.207Z,20.88
2023-03-23T17:08:12.712Z,21.63
2023-03-23T17:10:41.229Z,22.90
2023-03-23T17:13:08.906Z,31.73
2023-03-23T17:15:46.033Z,27.83
2023-03-23T17:18:14.418Z,25.60
2023-03-23T17:20:41.320Z,27.67
2023-03-23T17:23:08.124Z,30.13
2023-03-23T17:25:35.040Z,26.83
2023-03-23T17:28:05.719Z,32.92
2023-03-23T17:30:34.278Z,31.52
2023-03-23T17:33:01.169Z,31.67
2023-03-23T17:35:28.009Z,31.45
2023-03-23T17:37:54.762Z,29.42
2023-03-23T17:40:21.675Z,36.65
2023-03-23T17:42:48.513Z,34.50
2023-03-23T17:45:15.479Z,34.28
2023-03-23T17:47:42.477Z,36.97
2023-03-23T17:50:11.513Z,36.03
2023-03-23T17:52:40.100Z,35.15
2023-03-23T17:55:07.529Z,40.72
2023-03-23T17:57:35.156Z,29.50
2023-03-23T18:00:03.388Z,35.05
2023-03-23T18:02:30.429Z,35.78
2023-03-23T18:04:59.582Z,29.88
2023-03-23T18:07:26.415Z,30.30
2023-03-23T18:09:53.268Z,31.73
2023-03-23T18:12:20.319Z,33.10
2023-03-23T18:14:47.677Z,33.47
2023-03-23T18:17:14.441Z,31.52
2023-03-23T18:19:41.505Z,31.75
2023-03-23T18:22:08.797Z,28.27
2023-03-23T18:24:35.638Z,32.60
2023-03-23T18:27:02.479Z,29.67
2023-03-23T18:29:29.399Z,33.50
2023-03-23T18:31:56.275Z,32.70
2023-03-23T18:34:23.068Z,39.80
2023-03-23T18:36:49.966Z,34.28
2023-03-23T18:39:16.936Z,35.25
2023-03-23T18:41:43.843Z,35.50
2023-03-23T18:44:10.824Z,36.13
2023-03-23T18:46:37.740Z,29.10
2023-03-23T18:49:04.611Z,42.25
2023-03-23T18:51:31.387Z,35.42
2023-03-23T18:53:58.192Z,32.72
2023-03-23T18:56:25.619Z,37.45
2023-03-23T18:58:53.624Z,34.75
2023-03-23T19:01:20.615Z,37.30
2023-03-23T19:03:47.510Z,34.67
2023-03-23T19:06:20.330Z,34.20
2023-03-23T19:08:48.557Z,38.33
2023-03-23T19:11:16.106Z,35.83
2023-03-23T19:13:53.814Z,35.30
2023-03-23T19:16:25.802Z,33.42
2023-03-23T19:18:52.606Z,37.42
2023-03-23T19:21:22.208Z,33.22
2023-03-23T19:23:52.386Z,33.40
2023-03-23T19:26:31.144Z,37.28
2023-03-23T19:31:29.383Z,42.38
2023-03-23T19:33:56.592Z,34.95
2023-03-23T19:36:24.896Z,34.25
2023-03-23T19:38:53.048Z,36.83
2023-03-23T19:41:20.235Z,30.60
2023-03-23T19:43:47.440Z,31.83
2023-03-23T19:46:14.785Z,30.67
2023-03-23T19:48:41.730Z,37.50
2023-03-23T19:51:09.793Z,36.63
2023-03-23T19:53:37.333Z,35.00
2023-03-23T19:56:05.057Z,37.17
2023-03-23T19:58:32.574Z,34.72
2023-03-23T20:01:01.345Z,30.77
2023-03-23T20:03:28.481Z,33.88
2023-03-23T20:06:02.934Z,33.70
2023-03-23T20:08:31.369Z,31.90
2023-03-23T20:11:10.015Z,32.10
2023-03-23T20:13:36.922Z,34.67
2023-03-23T20:16:03.752Z,37.00
2023-03-23T20:18:31.574Z,37.33
2023-03-23T20:21:10.289Z,34.97
2023-03-23T20:23:38.444Z,36.80
2023-03-23T20:26:09.360Z,38.30
2023-03-23T20:28:36.442Z,40.55
2023-03-23T20:31:21.164Z,36.92
2023-03-23T20:33:59.897Z,35.78
2023-03-23T20:36:36.874Z,39.40
2023-03-23T20:39:08.133Z,36.55
2023-03-23T20:41:36.313Z,41.33
2023-03-23T20:44:04.586Z,38.70
2023-03-23T20:46:32.043Z,38.17
2023-03-23T20:48:58.854Z,37.65
2023-03-23T20:51:25.792Z,34.58
2023-03-23T20:53:53.309Z,36.33
2023-03-23T20:56:20.384Z,33.10
2023-03-23T20:58:47.716Z,35.40
2023-03-23T21:01:15.309Z,34.63
2023-03-23T21:03:43.882Z,39.45
2023-03-23T21:06:10.842Z,36.58
2023-03-23T21:08:39.753Z,34.58
2023-03-23T21:11:09.976Z,33.75
2023-03-23T21:13:37.981Z,36.92
2023-03-23T21:16:06.036Z,36.30
2023-03-23T21:18:32.868Z,32.85
2023-03-23T21:21:00.529Z,32.03
2023-03-23T21:23:29.756Z,35.90
2023-03-23T21:26:01.852Z,32.22
2023-03-23T21:28:28.985Z,30.42
2023-03-23T21:31:01.174Z,32.17
2023-03-23T21:33:28.642Z,36.75
2023-03-23T21:35:55.615Z,30.00
2023-03-23T21:38:26.144Z,31.73
2023-03-23T21:40:54.247Z,28.45
2023-03-23T21:43:27.530Z,30.25
2023-03-23T21:45:57.168Z,28.45
2023-03-23T21:48:25.131Z,29.98
2023-03-23T21:50:52.722Z,27.58
2023-03-23T21:53:20.430Z,30.15
2023-03-23T21:55:54.725Z,35.03
2023-03-23T21:58:27.313Z,29.05
2023-03-23T22:00:55.403Z,28.95
2023-03-23T22:03:24.205Z,32.17
2023-03-23T22:05:54.663Z,27.92
2023-03-23T22:08:25.877Z,27.30
2023-03-23T22:11:00.385Z,31.48
2023-03-23T22:13:30.402Z,27.85
2023-03-23T22:15:59.095Z,34.55
2023-03-23T22:18:26.111Z,34.88
2023-03-23T22:20:53.650Z,35.30
2023-03-23T22:23:20.755Z,29.20
2023-03-23T22:25:47.706Z,31.90
2023-03-23T22:28:14.562Z,33.10
2023-03-23T22:30:41.419Z,27.52
2023-03-23T22:33:08.273Z,30.83
2023-03-23T22:35:35.311Z,31.10
2023-03-23T22:38:03.391Z,25.58
2023-03-23T22:40:31.588Z,31.85
2023-03-23T22:42:58.681Z,27.75
2023-03-23T22:45:27.300Z,31.52
2023-03-23T22:47:54.435Z,30.23
2023-03-23T22:50:24.084Z,26.33
2023-03-23T22:52:50.961Z,32.33
2023-03-23T22:55:17.894Z,29.38
2023-03-23T22:57:44.786Z,25.27
2023-03-23T23:00:15.135Z,23.17
2023-03-23T23:02:45.703Z,29.75
2023-03-23T23:05:13.311Z,31.10
2023-03-23T23:07:40.375Z,26.15
2023-03-23T23:10:07.871Z,30.73
2023-03-23T23:12:35.264Z,26.48
2023-03-23T23:15:04.623Z,23.58
2023-03-23T23:17:32.055Z,22.38
2023-03-23T23:19:59.872Z,25.83
2023-03-23T23:22:27.456Z,20.52
2023-03-23T23:24:54.562Z,22.52
2023-03-23T23:27:21.393Z,20.73
2023-03-23T23:29:48.219Z,24.95
2023-03-23T23:32:15.687Z,25.00
2023-03-23T23:34:42.562Z,27.83
2023-03-23T23:37:09.409Z,22.67
2023-03-23T23:39:38.539Z,24.77
2023-03-23T23:42:08.457Z,22.42
2023-03-23T23:44:35.637Z,21.25
2023-03-23T23:47:02.628Z,20.05
2023-03-23T23:49:29.623Z,22.13
2023-03-23T23:51:56.647Z,17.75
2023-03-23T23:54:30.265Z,21.65
2023-03-23T23:56:59.701Z,28.13
2023-03-23T23:59:28.830Z,19.90
